Time;durP1;ratioP1;P1;durP2;ratioP2;P2;SDS_P1;SDS_P2;PMS_P1;PMS_P2;Temp;Humidity;BMP_temperature;BMP_pressure;BME280_temperature;BME280_humidity;BME280_pressure;Samples;Min_cycle;Max_cycle;Signal;HPM_P1;HPM_P2
2021/07/27 00:01:59;;;;;;;;;9.25;9.25;;;;;28.22;42.69;101128.47;4936924;28;45531;-87
2021/07/27 00:04:24;;;;;;;;;10.00;10.00;;;;;28.22;42.80;101121.28;4932651;28;46089;-87
2021/07/27 00:06:49;;;;;;;;;11.00;11.00;;;;;28.21;42.90;101114.28;4934322;28;45451;-88
2021/07/27 00:09:15;;;;;;;;;11.50;11.00;;;;;28.21;43.28;101124.19;4925465;28;45405;-88
2021/07/27 00:11:40;;;;;;;;;13.75;13.00;;;;;28.20;42.75;101125.19;4921249;28;45188;-88
2021/07/27 00:14:05;;;;;;;;;9.50;9.50;;;;;28.24;42.67;101127.22;4925850;28;46336;-88
2021/07/27 00:16:32;;;;;;;;;9.00;9.00;;;;;28.24;43.33;101121.03;4928583;28;45224;-88
2021/07/27 00:18:58;;;;;;;;;10.00;10.00;;;;;28.22;42.91;101110.56;4928840;28;45622;-87
2021/07/27 00:21:23;;;;;;;;;11.75;11.75;;;;;28.23;43.01;101117.56;4937405;28;45458;-89
2021/07/27 00:23:48;;;;;;;;;12.25;12.25;;;;;28.25;42.97;101117.34;4939871;28;45424;-88
2021/07/27 00:26:14;;;;;;;;;11.50;10.75;;;;;28.20;42.71;101107.31;4925777;28;45434;-89
2021/07/27 00:28:41;;;;;;;;;10.25;9.75;;;;;28.16;42.57;101101.56;4934769;28;45523;-88
2021/07/27 00:31:07;;;;;;;;;10.50;10.50;;;;;28.21;42.66;101108.13;4933852;28;45350;-88
2021/07/27 00:33:33;;;;;;;;;12.50;11.75;;;;;28.23;42.97;101112.22;4925338;28;47364;-88
2021/07/27 00:36:01;;;;;;;;;10.75;9.75;;;;;28.21;43.25;101106.25;4939409;28;45500;-87
2021/07/27 00:38:26;;;;;;;;;9.50;9.50;;;;;28.23;42.68;101114.06;4924958;28;45731;-88
2021/07/27 00:40:52;;;;;;;;;10.00;10.00;;;;;28.23;43.11;101112.22;4929163;28;45430;-88
2021/07/27 00:43:19;;;;;;;;;12.00;10.50;;;;;28.26;43.23;101110.97;4933152;28;46402;-88
2021/07/27 00:45:45;;;;;;;;;11.00;11.00;;;;;28.22;42.86;101097.19;4936322;28;45421;-88
2021/07/27 00:48:11;;;;;;;;;9.25;9.00;;;;;28.21;42.56;101092.06;4926877;28;45523;-88
2021/07/27 00:50:38;;;;;;;;;11.00;10.50;;;;;28.25;42.83;101095.94;4925372;28;45295;-88
2021/07/27 00:53:04;;;;;;;;;11.00;10.00;;;;;28.24;42.66;101092.44;4927798;28;46033;-88
2021/07/27 00:55:31;;;;;;;;;11.00;11.00;;;;;28.26;43.19;101084.22;4928071;28;45552;-89
2021/07/27 00:57:56;;;;;;;;;8.50;8.50;;;;;28.26;42.83;101087.69;4928052;28;45406;-88
2021/07/27 01:00:24;;;;;;;;;12.25;11.00;;;;;28.26;42.68;101082.34;4927459;28;45611;-88
2021/07/27 01:02:49;;;;;;;;;11.25;10.75;;;;;28.27;43.14;101086.66;4923557;28;46563;-89
2021/07/27 01:05:15;;;;;;;;;10.75;9.75;;;;;28.24;42.74;101084.41;4925130;28;45286;-89
2021/07/27 01:07:41;;;;;;;;;9.25;9.25;;;;;28.26;42.89;101078.88;4934133;28;45576;-88
2021/07/27 01:10:08;;;;;;;;;9.75;9.75;;;;;28.26;42.79;101071.63;4933474;28;45438;-88
2021/07/27 01:12:35;;;;;;;;;10.00;7.75;;;;;28.23;42.80;101065.91;4924912;28;46699;-87
2021/07/27 01:15:01;;;;;;;;;10.00;10.00;;;;;28.24;43.39;101057.66;4938422;28;45668;-89
2021/07/27 01:17:27;;;;;;;;;8.25;7.50;;;;;28.25;43.03;101055.81;4936321;28;45406;-88
2021/07/27 01:20:04;;;;;;;;;13.00;13.00;;;;;28.22;42.92;101058.91;4927600;28;45449;-89
2021/07/27 01:43:59;;;;;;;;;9.75;9.75;;;;;28.24;42.82;101046.16;4926204;28;45433;-88
2021/07/27 01:46:25;;;;;;;;;12.75;10.50;;;;;28.24;43.03;101048.81;4931042;28;45368;-88
2021/07/27 01:48:51;;;;;;;;;9.50;9.00;;;;;28.22;42.91;101038.34;4935281;28;45390;-89
2021/07/27 01:51:17;;;;;;;;;11.25;11.25;;;;;28.25;43.13;101045.13;4938305;28;45470;-88
2021/07/27 01:53:47;;;;;;;;;9.25;9.25;;;;;28.25;42.95;101048.63;4937378;28;46963;-88
2021/07/27 01:56:12;;;;;;;;;8.50;8.50;;;;;28.23;42.74;101064.06;4924291;28;45411;-89
2021/07/27 01:58:38;;;;;;;;;10.75;10.75;;;;;28.21;42.85;101058.09;4927353;28;45383;-88
2021/07/27 02:01:03;;;;;;;;;9.00;9.00;;;;;28.22;43.47;101058.91;4928071;28;45322;-88
2021/07/27 02:03:28;;;;;;;;;9.75;8.25;;;;;28.25;43.46;101067.34;4937615;28;46184;-88
2021/07/27 02:05:54;;;;;;;;;11.00;9.25;;;;;28.25;43.33;101067.34;4924218;28;45585;-89
2021/07/27 02:08:20;;;;;;;;;9.50;9.50;;;;;28.21;42.67;101062.66;4935028;28;45259;-88
2021/07/27 02:10:50;;;;;;;;;9.50;8.25;;;;;28.24;42.69;101063.03;4927201;28;45276;-88
2021/07/27 02:13:27;;;;;;;;;9.50;7.25;;;;;28.26;42.94;101062.81;4933974;28;47193;-89
2021/07/27 02:15:52;;;;;;;;;12.00;11.00;;;;;28.25;42.95;101056.63;4933790;28;45258;-88
2021/07/27 02:18:18;;;;;;;;;8.50;7.75;;;;;28.24;42.92;101056.84;4926597;28;45360;-88
2021/07/27 02:20:43;;;;;;;;;10.50;8.75;;;;;28.26;42.90;101062.81;4923223;28;45604;-88
2021/07/27 02:23:09;;;;;;;;;8.00;8.00;;;;;28.27;43.02;101064.44;4924795;28;45325;-88
2021/07/27 02:25:34;;;;;;;;;7.25;7.25;;;;;28.26;42.77;101057.47;4926569;28;45323;-89
2021/07/27 02:28:00;;;;;;;;;9.00;9.00;;;;;28.26;43.47;101049.44;4927073;28;45315;-89
2021/07/27 02:30:26;;;;;;;;;8.75;8.75;;;;;28.26;43.41;101050.25;4922811;28;45252;-89
2021/07/27 02:32:51;;;;;;;;;10.25;10.25;;;;;28.27;42.86;101041.19;4938051;28;47076;-89
2021/07/27 02:35:22;;;;;;;;;8.50;8.50;;;;;28.26;42.98;101030.72;4933867;28;45294;-88
2021/07/27 02:37:47;;;;;;;;;9.00;9.00;;;;;28.27;42.76;101038.50;4926618;28;45532;-88
2021/07/27 02:40:13;;;;;;;;;11.00;10.00;;;;;28.28;43.38;101031.31;4926488;28;45448;-88
2021/07/27 02:42:39;;;;;;;;;9.25;9.25;;;;;28.25;43.46;101018.38;4926784;28;45467;-89
2021/07/27 02:45:06;;;;;;;;;9.00;9.00;;;;;28.26;42.76;101022.69;4924180;28;45486;-88
2021/07/27 02:47:33;;;;;;;;;9.00;9.00;;;;;28.23;42.75;101009.75;4922454;28;45371;-89
2021/07/27 02:49:58;;;;;;;;;11.50;10.75;;;;;28.22;43.46;101008.09;4925668;28;45542;-89
2021/07/27 02:52:23;;;;;;;;;8.25;8.25;;;;;28.25;42.92;101007.66;4927910;28;45493;-89
2021/07/27 02:54:48;;;;;;;;;10.75;10.75;;;;;28.23;43.42;100997.19;4927035;28;45380;-89
2021/07/27 02:57:17;;;;;;;;;9.75;9.75;;;;;28.25;43.31;101019.19;4922904;28;45469;-89
2021/07/27 02:59:42;;;;;;;;;8.25;8.25;;;;;28.22;43.38;101008.91;4921795;28;45357;-89
2021/07/27 03:02:08;;;;;;;;;9.25;9.25;;;;;28.24;43.07;101009.50;4925056;28;46228;-89
2021/07/27 03:04:33;;;;;;;;;9.25;8.75;;;;;28.22;42.96;101005.41;4928102;28;45635;-89
2021/07/27 03:06:58;;;;;;;;;8.75;8.00;;;;;28.26;43.55;101012.78;4927219;28;45904;-89
2021/07/27 03:09:29;;;;;;;;;9.00;9.00;;;;;28.21;43.65;101004.59;4921878;28;45413;-88
2021/07/27 03:11:55;;;;;;;;;9.25;9.25;;;;;28.26;43.13;101003.97;4922428;28;45367;-88
2021/07/27 03:14:20;;;;;;;;;9.50;8.00;;;;;28.25;42.89;100996.97;4933784;28;45360;-87
2021/07/27 03:16:46;;;;;;;;;11.25;10.00;;;;;28.23;43.29;101007.06;4926861;28;45303;-88
2021/07/27 03:19:11;;;;;;;;;12.00;10.50;;;;;28.19;42.86;101009.34;4928348;28;45484;-88
2021/07/27 03:21:37;;;;;;;;;9.25;9.25;;;;;28.21;43.34;101006.47;4935548;28;46199;-88
2021/07/27 03:24:02;;;;;;;;;11.25;11.25;;;;;28.24;43.12;101020.22;4923020;28;45466;-88
2021/07/27 03:26:27;;;;;;;;;8.25;7.75;;;;;28.23;42.83;101023.13;4921819;28;45383;-88
2021/07/27 03:28:53;;;;;;;;;9.00;7.50;;;;;28.25;42.85;101023.72;4925746;28;45520;-87
2021/07/27 03:31:19;;;;;;;;;10.00;10.00;;;;;28.23;43.29;101026.63;4926099;28;46136;-88
2021/07/27 03:33:45;;;;;;;;;10.25;9.25;;;;;28.24;43.13;101025.56;4926009;28;45475;-88
2021/07/27 03:36:11;;;;;;;;;9.25;9.00;;;;;28.26;43.59;101030.72;4922732;28;45331;-88
2021/07/27 03:38:36;;;;;;;;;9.00;9.00;;;;;28.26;43.47;101026.16;4935916;28;45290;-88
2021/07/27 03:41:05;;;;;;;;;10.25;10.25;;;;;28.26;42.94;101031.50;4933087;28;45401;-89
2021/07/27 03:43:30;;;;;;;;;11.00;9.00;;;;;28.27;43.37;101027.81;4928153;28;45531;-89
2021/07/27 03:45:56;;;;;;;;;11.00;10.00;;;;;28.26;42.98;101034.19;4926073;28;45179;-88
2021/07/27 03:48:21;;;;;;;;;7.50;6.75;;;;;28.27;42.95;101035.00;4928738;28;45220;-88
2021/07/27 03:50:47;;;;;;;;;8.50;8.50;;;;;28.27;42.98;101043.03;4926202;28;46097;-88
2021/07/27 03:53:16;;;;;;;;;8.50;8.25;;;;;28.27;42.93;101035.00;4936368;28;45322;-89
2021/07/27 03:55:42;;;;;;;;;8.50;8.50;;;;;28.21;43.48;101025.19;4936003;28;45512;-89
2021/07/27 03:58:09;;;;;;;;;8.75;8.75;;;;;28.25;43.50;101037.91;4940268;28;45421;-89
2021/07/27 04:00:34;;;;;;;;;8.25;8.00;;;;;28.24;42.81;101035.44;4938525;28;46040;-89
2021/07/27 04:03:01;;;;;;;;;9.00;8.50;;;;;28.25;43.21;101045.94;4925992;28;45502;-89
2021/07/27 04:05:26;;;;;;;;;11.00;10.25;;;;;28.25;43.53;101034.41;4925061;28;45343;-89
2021/07/27 04:07:51;;;;;;;;;9.50;9.50;;;;;28.25;43.63;101032.56;4928538;28;45403;-88
2021/07/27 04:10:17;;;;;;;;;9.25;8.50;;;;;28.27;43.17;101032.34;4929005;28;46108;-88
2021/07/27 04:12:42;;;;;;;;;9.00;9.00;;;;;28.23;43.08;101033.81;4930965;28;45333;-88
2021/07/27 04:15:08;;;;;;;;;7.50;7.50;;;;;28.27;43.26;101037.69;4939908;28;45362;-88
2021/07/27 04:17:33;;;;;;;;;10.00;9.00;;;;;28.23;42.93;101031.16;4924619;28;45556;-88
2021/07/27 04:19:59;;;;;;;;;8.75;8.75;;;;;28.23;43.26;101031.97;4942580;28;53060;-89
2021/07/27 04:22:24;;;;;;;;;11.25;9.50;;;;;28.22;43.28;101027.66;4930156;28;45445;-89
2021/07/27 04:24:49;;;;;;;;;9.50;9.50;;;;;28.23;43.03;101023.13;4929889;28;45365;-89
2021/07/27 04:27:24;;;;;;;;;9.50;9.50;;;;;28.25;43.05;101027.22;4927585;28;45372;-88
2021/07/27 04:29:51;;;;;;;;;10.00;10.00;;;;;28.25;43.10;101023.72;4924363;28;46920;-88
2021/07/27 04:32:16;;;;;;;;;9.00;9.00;;;;;28.26;42.82;101020.81;4926875;28;45479;-89
2021/07/27 04:34:41;;;;;;;;;8.75;8.75;;;;;28.25;42.87;101019.19;4930355;28;45536;-88
2021/07/27 04:37:07;;;;;;;;;9.00;9.00;;;;;28.25;43.44;101011.16;4928912;28;45376;-88
2021/07/27 04:39:32;;;;;;;;;9.00;7.25;;;;;28.25;43.53;101013.00;4928419;28;46084;-88
2021/07/27 04:41:57;;;;;;;;;11.25;11.00;;;;;28.21;43.51;101015.28;4925307;28;45259;-89
2021/07/27 04:44:23;;;;;;;;;11.25;9.50;;;;;28.24;42.82;101012.19;4940264;28;45293;-89
2021/07/27 04:46:48;;;;;;;;;10.00;8.75;;;;;28.23;43.03;101009.75;4935420;28;45250;-88
2021/07/27 04:49:14;;;;;;;;;9.75;9.25;;;;;28.24;43.12;101011.38;4934686;28;46968;-89
2021/07/27 04:51:40;;;;;;;;;10.25;9.50;;;;;28.25;42.96;101015.69;4934675;28;45662;-89
2021/07/27 04:54:05;;;;;;;;;8.00;8.00;;;;;28.23;42.96;101007.06;4937900;28;45440;-89
2021/07/27 04:56:34;;;;;;;;;8.50;8.00;;;;;28.24;43.43;101014.03;4936887;28;45366;-88
2021/07/27 04:59:00;;;;;;;;;10.75;9.75;;;;;28.24;43.41;101014.03;4926527;28;46658;-89
2021/07/27 05:01:26;;;;;;;;;9.75;9.00;;;;;28.20;43.47;101008.31;4932035;28;45682;-89
2021/07/27 05:03:51;;;;;;;;;7.00;7.00;;;;;28.27;43.33;101016.28;4935922;28;45464;-89
2021/07/27 05:06:22;;;;;;;;;8.00;8.00;;;;;28.24;43.04;101011.38;4925246;28;45354;-89
2021/07/27 05:08:48;;;;;;;;;9.25;8.25;;;;;28.28;42.94;101017.94;4939652;28;46179;-89
2021/07/27 05:11:13;;;;;;;;;8.00;8.00;;;;;28.24;43.27;101008.69;4925242;28;45387;-88
2021/07/27 05:13:39;;;;;;;;;6.50;6.50;;;;;28.27;42.91;101009.09;4927892;28;45485;-88
2021/07/27 05:16:07;;;;;;;;;9.00;9.00;;;;;28.27;43.00;101010.94;4928284;28;45481;-88
2021/07/27 05:18:33;;;;;;;;;8.00;7.50;;;;;28.25;43.34;101000.47;4928521;28;46291;-88
2021/07/27 05:20:59;;;;;;;;;9.25;8.25;;;;;28.20;42.98;100999.47;4964186;23;45599;-72
2021/07/27 05:23:24;;;;;;;;;10.75;10.00;;;;;28.15;42.97;100976.91;4958382;28;45533;-73
2021/07/27 05:25:50;;;;;;;;;10.75;8.00;;;;;28.15;43.38;100992.94;4947020;28;45488;-73
2021/07/27 05:28:15;;;;;;;;;9.50;9.50;;;;;28.24;43.12;101006.00;4946682;28;46111;-72
2021/07/27 05:30:40;;;;;;;;;8.00;8.00;;;;;28.20;43.08;100988.78;4948894;28;45365;-72
2021/07/27 05:33:06;;;;;;;;;8.50;8.50;;;;;28.25;43.61;100996.97;4957891;28;45632;-72
2021/07/27 05:35:31;;;;;;;;;7.75;7.75;;;;;28.22;43.81;101002.75;4942091;28;45332;-73
2021/07/27 05:37:57;;;;;;;;;8.00;8.00;;;;;28.25;43.11;100988.94;4945814;28;45862;-73
2021/07/27 05:40:22;;;;;;;;;9.00;8.25;;;;;28.23;43.10;100991.84;4946718;28;45439;-74
2021/07/27 05:42:47;;;;;;;;;8.00;8.00;;;;;28.25;43.06;100988.94;4945545;28;45770;-75
2021/07/27 05:45:13;;;;;;;;;9.25;8.25;;;;;28.26;43.55;100990.59;4941955;28;45487;-75
2021/07/27 05:47:38;;;;;;;;;13.00;10.75;;;;;28.26;43.18;100985.25;4948126;28;52121;-74
2021/07/27 05:50:08;;;;;;;;;12.25;9.25;;;;;28.18;42.49;100979.09;4944706;28;45423;-73
2021/07/27 05:52:33;;;;;;;;;9.00;8.75;;;;;28.24;43.06;100985.44;4954083;28;46225;-75
2021/07/27 05:54:59;;;;;;;;;10.50;9.50;;;;;28.24;42.50;100979.25;4956621;28;45499;-74
2021/07/27 05:57:24;;;;;;;;;13.25;10.00;;;;;28.23;42.60;100973.13;4956253;28;46160;-73
2021/07/27 05:59:49;;;;;;;;;9.75;9.75;;;;;28.19;42.79;100966.56;4948500;28;45323;-73
2021/07/27 06:02:21;;;;;;;;;8.50;8.50;;;;;28.21;43.44;100959.13;4947105;28;45334;-73
2021/07/27 06:04:46;;;;;;;;;11.75;10.75;;;;;28.18;43.63;100948.88;4947292;28;45706;-74
2021/07/27 06:07:12;;;;;;;;;8.00;8.00;;;;;28.23;43.13;100962.41;4947123;28;46098;-74
2021/07/27 06:09:37;;;;;;;;;8.75;8.75;;;;;28.23;42.94;100964.28;4947268;28;45321;-73
2021/07/27 06:12:03;;;;;;;;;11.50;10.25;;;;;28.20;42.93;100956.69;4956712;28;45284;-72
2021/07/27 06:14:29;;;;;;;;;12.00;11.25;;;;;28.22;43.43;100959.94;4941497;28;45467;-74
2021/07/27 06:16:54;;;;;;;;;8.00;8.00;;;;;28.20;43.35;100954.81;4945181;28;45395;-73
2021/07/27 06:19:20;;;;;;;;;10.25;10.25;;;;;28.22;43.14;100963.44;4945565;28;45441;-73
2021/07/27 06:21:45;;;;;;;;;9.25;9.25;;;;;28.14;43.25;100961.88;4946118;28;45487;-74
2021/07/27 06:24:10;;;;;;;;;10.50;9.75;;;;;28.18;43.51;100972.97;4944062;28;45378;-75
2021/07/27 06:26:37;;;;;;;;;9.25;8.75;;;;;28.27;43.82;100992.22;4956909;28;45506;-74
2021/07/27 06:29:03;;;;;;;;;8.75;7.50;;;;;28.14;43.67;100972.56;4944486;28;45540;-74
2021/07/27 06:31:29;;;;;;;;;9.00;7.50;;;;;28.17;43.59;100982.84;4945884;28;45474;-74
2021/07/27 06:33:54;;;;;;;;;8.50;7.75;;;;;28.11;43.12;100970.31;4945578;28;45388;-74
2021/07/27 06:36:20;;;;;;;;;10.00;9.75;;;;;28.25;43.58;100995.13;4944884;28;45344;-74
2021/07/27 06:38:45;;;;;;;;;9.00;9.00;;;;;28.25;43.87;100991.63;4941100;28;45457;-74
2021/07/27 06:41:12;;;;;;;;;11.00;10.00;;;;;28.18;43.50;100983.66;4943404;28;45406;-74
2021/07/27 06:43:39;;;;;;;;;10.25;9.25;;;;;28.26;43.21;100995.94;4945734;28;45353;-74
2021/07/27 06:46:05;;;;;;;;;12.00;12.00;;;;;28.02;43.76;100967.13;4945636;28;45441;-74
2021/07/27 06:48:30;;;;;;;;;9.00;8.00;;;;;28.22;43.74;100994.72;4945985;28;45346;-73
2021/07/27 06:50:56;;;;;;;;;8.50;8.50;;;;;28.26;43.18;101009.31;4956688;28;45290;-74
2021/07/27 06:53:23;;;;;;;;;9.00;8.50;;;;;28.23;43.29;101007.06;4942031;28;45341;-73
2021/07/27 06:55:49;;;;;;;;;9.50;9.25;;;;;28.16;43.31;100988.38;4945423;28;46424;-74
2021/07/27 06:58:14;;;;;;;;;8.25;8.25;;;;;28.25;43.92;101011.16;4945219;28;45559;-73
2021/07/27 07:00:40;;;;;;;;;10.00;9.00;;;;;28.26;43.94;101014.66;4945314;28;45254;-73
2021/07/27 07:03:09;;;;;;;;;8.75;8.75;;;;;28.26;43.40;101006.63;4942607;28;45243;-74
2021/07/27 07:05:37;;;;;;;;;10.25;9.00;;;;;28.25;43.81;101016.50;4956436;28;46155;-74
2021/07/27 07:08:03;;;;;;;;;9.00;8.00;;;;;28.26;43.87;101009.31;4943884;28;45354;-74
2021/07/27 07:10:29;;;;;;;;;10.25;8.50;;;;;28.09;43.98;100982.28;4945264;28;45458;-73
2021/07/27 07:12:54;;;;;;;;;11.00;10.00;;;;;28.26;43.31;101002.09;4945434;28;45454;-73
2021/07/27 07:15:20;;;;;;;;;9.00;9.00;;;;;28.26;43.13;101014.66;4943970;28;45413;-74
2021/07/27 07:17:45;;;;;;;;;8.00;8.00;;;;;28.27;43.21;101014.44;4939704;28;45865;-74
2021/07/27 07:20:12;;;;;;;;;9.50;9.50;;;;;28.20;43.23;101007.50;4942607;28;45443;-74
2021/07/27 07:22:38;;;;;;;;;8.75;8.25;;;;;28.28;43.81;101020.59;4944164;28;45460;-73
2021/07/27 07:25:04;;;;;;;;;12.00;10.00;;;;;28.29;43.09;101032.94;4944999;28;46024;-74
2021/07/27 07:27:29;;;;;;;;;8.25;8.25;;;;;28.20;43.80;101002.97;4945640;28;45382;-73
2021/07/27 07:29:56;;;;;;;;;10.00;8.25;;;;;28.24;42.99;101006.00;4955877;28;45326;-75
2021/07/27 07:32:22;;;;;;;;;9.00;8.00;;;;;28.29;43.10;101007.00;4941486;28;45562;-75
2021/07/27 07:34:47;;;;;;;;;8.75;7.25;;;;;28.22;43.03;100995.53;4944830;28;45806;-75
2021/07/27 07:37:13;;;;;;;;;8.50;8.50;;;;;28.20;43.21;100986.09;4945034;28;45226;-75
2021/07/27 07:39:38;;;;;;;;;7.00;6.00;;;;;28.12;43.17;100973.81;4945086;28;49575;-74
2021/07/27 07:42:05;;;;;;;;;10.00;10.00;;;;;28.33;43.07;101014.59;4942230;28;45593;-75
2021/07/27 07:44:31;;;;;;;;;11.50;9.75;;;;;28.30;43.68;101010.50;4955861;28;45995;-75
2021/07/27 07:46:56;;;;;;;;;9.75;8.75;;;;;28.19;43.16;100990.63;4955231;28;45721;-76
2021/07/27 07:49:21;;;;;;;;;8.50;8.50;;;;;28.25;43.13;100996.97;4948500;28;45691;-75
2021/07/27 07:51:48;;;;;;;;;8.25;8.25;;;;;28.34;43.58;101017.03;4944964;28;45401;-75
2021/07/27 07:54:17;;;;;;;;;10.50;9.00;;;;;28.32;43.10;101024.47;4943110;28;46068;-72
2021/07/27 07:56:44;;;;;;;;;10.25;9.00;;;;;28.26;43.08;101010.09;4940280;28;45415;-75
2021/07/27 07:59:10;;;;;;;;;10.00;10.00;;;;;28.33;43.23;101022.63;4942360;28;45975;-75
2021/07/27 08:01:36;;;;;;;;;7.25;7.25;;;;;28.32;43.00;101019.13;4944741;28;45471;-75
2021/07/27 08:04:01;;;;;;;;;9.50;9.00;;;;;28.32;43.23;101032.50;4944414;28;46947;-74
2021/07/27 08:06:27;;;;;;;;;7.00;7.00;;;;;28.27;43.55;101013.59;4944736;28;45495;-74
2021/07/27 08:08:52;;;;;;;;;9.75;8.75;;;;;28.29;43.14;101020.38;4955858;28;45393;-75
2021/07/27 08:11:18;;;;;;;;;10.00;10.00;;;;;28.31;43.24;101028.19;4941553;28;45639;-75
2021/07/27 08:13:43;;;;;;;;;9.75;7.00;;;;;28.26;43.38;101028.84;4944080;28;46496;-73
2021/07/27 08:16:09;;;;;;;;;10.00;8.75;;;;;28.25;43.60;101013.00;4944470;28;45464;-73
2021/07/27 08:18:35;;;;;;;;;8.50;7.25;;;;;28.32;43.79;101029.00;4944809;28;45446;-73
2021/07/27 08:21:01;;;;;;;;;7.75;7.75;;;;;28.31;43.75;101024.69;4940937;28;45488;-75
2021/07/27 08:23:26;;;;;;;;;8.25;8.25;;;;;28.31;43.09;101027.38;4955820;28;46269;-74
2021/07/27 08:25:51;;;;;;;;;9.50;9.00;;;;;28.21;43.09;101009.94;4944363;28;45408;-74
2021/07/27 08:28:16;;;;;;;;;9.75;8.25;;;;;28.29;43.13;101020.38;4944050;28;45488;-74
2021/07/27 08:30:42;;;;;;;;;10.75;10.25;;;;;28.31;43.22;101022.84;4944562;28;45345;-74
2021/07/27 08:33:07;;;;;;;;;8.00;8.00;;;;;28.29;43.23;101016.88;4941927;28;46285;-74
2021/07/27 08:35:33;;;;;;;;;7.75;7.75;;;;;28.26;43.36;101007.44;4942828;28;45392;-74
2021/07/27 08:37:58;;;;;;;;;7.25;7.25;;;;;28.19;42.91;101001.31;4946842;28;45451;-74
2021/07/27 08:40:24;;;;;;;;;9.50;9.50;;;;;28.32;43.50;101011.09;4947665;28;45500;-74
2021/07/27 08:42:50;;;;;;;;;8.00;8.00;;;;;28.26;43.23;101002.09;4947243;28;46277;-74
2021/07/27 08:45:15;;;;;;;;;11.00;9.25;;;;;28.33;42.97;101010.06;4946121;28;45611;-74
2021/07/27 08:47:47;;;;;;;;;11.50;9.50;;;;;28.14;42.91;100974.41;4958455;28;45639;-74
2021/07/27 08:50:13;;;;;;;;;9.75;8.00;;;;;28.34;42.91;101005.53;4945035;28;45347;-74
2021/07/27 08:52:38;;;;;;;;;9.00;9.00;;;;;28.27;43.01;100990.34;4947361;28;47125;-74
2021/07/27 08:55:05;;;;;;;;;8.75;7.50;;;;;28.14;43.64;100969.91;4947089;28;45377;-74
2021/07/27 08:57:31;;;;;;;;;7.75;7.75;;;;;28.34;43.54;101000.97;4947203;28;45510;-73
2021/07/27 08:59:56;;;;;;;;;8.00;7.75;;;;;28.35;42.86;100999.13;4943426;28;45462;-74
2021/07/27 09:02:29;;;;;;;;;8.25;7.25;;;;;28.35;42.93;101004.47;4958974;28;46457;-74
2021/07/27 09:05:09;;;;;;;;;9.75;8.50;;;;;28.32;42.87;101002.25;4946728;28;45501;-74
2021/07/27 09:07:35;;;;;;;;;7.75;7.75;;;;;28.35;42.97;101007.16;4947077;28;45400;-75
2021/07/27 09:10:11;;;;;;;;;9.00;8.25;;;;;28.08;43.58;100970.75;4947199;28;45416;-74
2021/07/27 09:12:36;;;;;;;;;8.25;8.25;;;;;28.27;43.50;100986.84;4946617;28;47111;-75
2021/07/27 09:15:06;;;;;;;;;7.00;7.00;;;;;28.36;43.47;100998.09;4943688;28;45465;-74
2021/07/27 09:17:32;;;;;;;;;10.25;10.00;;;;;28.26;43.56;100985.25;4942870;28;45345;-74
2021/07/27 09:19:58;;;;;;;;;9.50;9.50;;;;;28.35;43.13;100999.97;4946116;28;45516;-74
2021/07/27 09:22:23;;;;;;;;;9.25;8.75;;;;;28.35;43.13;101001.81;4946719;28;46629;-74
2021/07/27 09:24:48;;;;;;;;;9.00;9.00;;;;;28.31;43.60;100997.94;4949723;28;46173;-74
2021/07/27 09:27:14;;;;;;;;;8.50;8.50;;;;;28.26;43.50;100991.38;4957774;28;45416;-73
2021/07/27 09:29:47;;;;;;;;;9.25;8.75;;;;;28.34;43.58;101014.38;4942299;28;45346;-74
2021/07/27 09:32:19;;;;;;;;;8.00;8.00;;;;;28.27;42.81;101005.59;4944395;28;46323;-74
2021/07/27 09:34:46;;;;;;;;;8.50;8.25;;;;;28.32;42.79;101010.28;4946719;28;45476;-74
2021/07/27 09:37:12;;;;;;;;;9.75;9.00;;;;;28.35;43.61;101024.03;4946670;28;45357;-74
2021/07/27 09:39:37;;;;;;;;;8.25;8.25;;;;;28.35;43.31;101023.22;4947862;28;45530;-74
2021/07/27 09:42:05;;;;;;;;;7.00;6.75;;;;;28.35;43.24;101016.00;4957475;28;47123;-74
2021/07/27 09:44:31;;;;;;;;;10.25;10.25;;;;;28.36;42.95;101014.16;4942266;28;45560;-74
2021/07/27 09:46:58;;;;;;;;;8.75;8.50;;;;;28.36;43.20;101023.00;4956164;28;45351;-74
2021/07/27 09:49:24;;;;;;;;;8.75;8.75;;;;;28.37;43.59;101015.78;4949947;28;45499;-74
2021/07/27 09:51:51;;;;;;;;;9.00;8.25;;;;;28.37;43.40;101015.78;4946421;28;46064;-74
2021/07/27 09:54:21;;;;;;;;;10.50;9.75;;;;;28.31;43.31;101012.16;4945034;28;45543;-74
2021/07/27 09:56:46;;;;;;;;;9.25;8.00;;;;;28.37;43.39;101027.31;4941621;28;45471;-74
2021/07/27 09:59:16;;;;;;;;;7.00;7.00;;;;;28.39;43.44;101021.75;4944101;28;45388;-74
2021/07/27 10:01:47;;;;;;;;;8.50;8.50;;;;;28.40;43.18;101029.56;4946185;28;45499;-74
2021/07/27 10:04:20;;;;;;;;;9.25;9.25;;;;;28.28;42.84;101012.59;4952318;28;45471;-74
2021/07/27 10:06:49;;;;;;;;;8.00;8.00;;;;;28.32;43.40;101019.13;4954884;28;45512;-74
2021/07/27 10:09:25;;;;;;;;;9.50;9.25;;;;;28.40;43.30;101029.56;4944292;28;45271;-74
2021/07/27 10:11:52;;;;;;;;;8.00;8.00;;;;;28.41;42.94;101025.03;4941619;28;45574;-74
2021/07/27 10:14:18;;;;;;;;;10.25;9.50;;;;;28.38;43.06;101020.09;4942648;28;45391;-74
2021/07/27 10:16:45;;;;;;;;;9.00;9.00;;;;;28.41;43.16;101025.03;4946288;28;45538;-74
2021/07/27 10:19:19;;;;;;;;;11.00;8.25;;;;;28.41;43.26;101038.41;4951875;28;45487;-74
2021/07/27 10:22:03;;;;;;;;;8.25;7.25;;;;;28.42;43.32;101025.84;4969417;28;46994;-74
2021/07/27 10:24:54;;;;;;;;;8.00;8.00;;;;;28.42;43.27;101039.22;4945742;28;45507;-74
2021/07/27 10:27:29;;;;;;;;;12.00;9.00;;;;;28.33;43.42;101031.47;4955732;28;45538;-74
2021/07/27 10:30:10;;;;;;;;;10.00;9.00;;;;;28.42;43.22;101026.66;4957282;28;45273;-74
2021/07/27 10:32:35;;;;;;;;;12.50;9.00;;;;;28.42;43.29;101037.34;4954676;28;46119;-75
2021/07/27 10:35:28;;;;;;;;;10.25;10.25;;;;;28.37;43.51;101024.63;4944689;28;45545;-74
2021/07/27 10:38:09;;;;;;;;;8.50;8.00;;;;;28.24;43.29;101016.72;4945315;28;45440;-74
2021/07/27 10:40:35;;;;;;;;;9.25;7.50;;;;;28.40;42.76;101034.91;4945843;28;45426;-74
2021/07/27 10:43:03;;;;;;;;;8.00;8.00;;;;;28.41;43.31;101035.72;4949885;28;46061;-74
2021/07/27 10:45:28;;;;;;;;;8.50;8.50;;;;;28.32;42.92;101023.66;4956567;28;45542;-74
2021/07/27 10:47:54;;;;;;;;;8.00;8.00;;;;;28.33;43.49;101023.44;4941556;28;45330;-74
2021/07/27 10:50:31;;;;;;;;;8.00;8.00;;;;;28.30;43.43;101018.53;4942251;28;45334;-74
2021/07/27 10:53:02;;;;;;;;;8.25;7.75;;;;;28.33;42.71;101026.13;4955668;28;45524;-74
2021/07/27 10:55:29;;;;;;;;;8.25;7.50;;;;;28.35;43.40;101025.88;4948354;28;45539;-74
2021/07/27 10:57:56;;;;;;;;;10.00;9.50;;;;;28.30;43.23;101023.88;4948983;28;45442;-74
2021/07/27 11:00:32;;;;;;;;;8.25;8.25;;;;;28.35;42.63;101040.09;4956604;28;45423;-74
2021/07/27 11:02:58;;;;;;;;;9.25;8.25;;;;;28.37;43.00;101029.97;4941503;28;47171;-74
2021/07/27 11:05:25;;;;;;;;;9.00;9.00;;;;;28.16;43.21;100997.22;4941653;28;45354;-74
2021/07/27 11:07:51;;;;;;;;;7.50;7.50;;;;;28.38;42.83;101028.97;4956118;28;45484;-74
2021/07/27 11:10:20;;;;;;;;;8.50;8.50;;;;;28.41;43.15;101038.41;4949722;28;45433;-74
2021/07/27 11:12:46;;;;;;;;;10.75;10.75;;;;;28.40;42.93;101037.56;4945330;28;46460;-74
2021/07/27 11:15:22;;;;;;;;;8.00;8.00;;;;;28.42;42.85;101031.19;4943062;28;45405;-73
2021/07/27 11:17:47;;;;;;;;;8.25;8.25;;;;;28.42;42.60;101026.66;4940946;28;45484;-74
2021/07/27 11:20:22;;;;;;;;;9.75;8.25;;;;;28.14;43.31;100977.09;4942526;28;45600;-74
2021/07/27 11:22:51;;;;;;;;;8.00;8.00;;;;;28.34;42.63;101011.69;4955631;28;46180;-74
2021/07/27 11:25:21;;;;;;;;;11.25;10.25;;;;;28.44;42.58;101013.06;4949396;28;45459;-74
2021/07/27 11:27:48;;;;;;;;;7.75;7.00;;;;;28.46;42.52;101019.03;4947657;28;45397;-74
2021/07/27 11:30:14;;;;;;;;;8.00;8.00;;;;;28.45;43.12;101012.03;4956175;28;45451;-73
2021/07/27 11:32:41;;;;;;;;;9.50;9.00;;;;;28.44;42.99;101000.50;4940440;28;46931;-74
2021/07/27 11:35:07;;;;;;;;;9.25;9.25;;;;;28.46;43.14;101008.34;4941394;28;45377;-74
2021/07/27 11:37:33;;;;;;;;;9.25;9.25;;;;;28.45;42.88;101007.50;4953401;28;45429;-74
2021/07/27 11:39:58;;;;;;;;;7.50;7.50;;;;;28.33;42.80;100977.97;4951767;28;45445;-74
2021/07/27 11:42:31;;;;;;;;;8.00;8.00;;;;;28.46;42.47;100990.44;4944455;28;46198;-74